sensor_id;sensor_type;location;lat;lon;timestamp;temperature;humidity
36548;DHT22;22551;52.206;4.856;2024-01-10T00:02:55;-3.00;99.90
36548;DHT22;22551;52.206;4.856;2024-01-10T00:07:57;-3.00;99.90
36548;DHT22;22551;52.206;4.856;2024-01-10T00:12:59;-3.00;99.90
36548;DHT22;22551;52.206;4.856;2024-01-10T00:18:03;-3.00;99.90
36548;DHT22;22551;52.206;4.856;2024-01-10T00:23:05;-3.10;99.90
36548;DHT22;22551;52.206;4.856;2024-01-10T00:28:07;-3.00;99.90
36548;DHT22;22551;52.206;4.856;2024-01-10T00:33:11;-3.10;99.90
36548;DHT22;22551;52.206;4.856;2024-01-10T00:38:13;-3.20;99.90
36548;DHT22;22551;52.206;4.856;2024-01-10T00:43:15;-3.20;99.90
36548;DHT22;22551;52.206;4.856;2024-01-10T00:48:19;-3.20;99.90
36548;DHT22;22551;52.206;4.856;2024-01-10T00:53:21;-3.10;99.90
36548;DHT22;22551;52.206;4.856;2024-01-10T00:58:23;-3.20;99.90
36548;DHT22;22551;52.206;4.856;2024-01-10T01:03:27;-3.20;99.90
36548;DHT22;22551;52.206;4.856;2024-01-10T01:08:29;-3.20;99.90
36548;DHT22;22551;52.206;4.856;2024-01-10T01:13:31;-3.20;99.90
36548;DHT22;22551;52.206;4.856;2024-01-10T01:18:35;-3.20;99.90
36548;DHT22;22551;52.206;4.856;2024-01-10T01:23:37;-3.20;99.90
36548;DHT22;22551;52.206;4.856;2024-01-10T01:28:39;-3.20;99.90
36548;DHT22;22551;52.206;4.856;2024-01-10T01:33:43;-3.30;99.90
36548;DHT22;22551;52.206;4.856;2024-01-10T01:44:44;-3.40;99.90
36548;DHT22;22551;52.206;4.856;2024-01-10T01:49:48;-3.50;99.90
36548;DHT22;22551;52.206;4.856;2024-01-10T01:54:52;-3.50;99.90
36548;DHT22;22551;52.206;4.856;2024-01-10T01:59:54;-3.50;99.90
36548;DHT22;22551;52.206;4.856;2024-01-10T02:04:58;-3.50;99.90
36548;DHT22;22551;52.206;4.856;2024-01-10T02:10:00;-3.60;99.90
36548;DHT22;22551;52.206;4.856;2024-01-10T02:15:02;-3.60;99.90
36548;DHT22;22551;52.206;4.856;2024-01-10T02:20:10;-3.50;99.90
36548;DHT22;22551;52.206;4.856;2024-01-10T02:25:14;-3.50;99.90
36548;DHT22;22551;52.206;4.856;2024-01-10T02:30:16;-3.60;99.90
36548;DHT22;22551;52.206;4.856;2024-01-10T02:35:18;-3.60;99.90
36548;DHT22;22551;52.206;4.856;2024-01-10T02:40:22;-3.60;99.90
36548;DHT22;22551;52.206;4.856;2024-01-10T02:45:24;-3.70;99.90
36548;DHT22;22551;52.206;4.856;2024-01-10T02:50:26;-3.70;99.90
36548;DHT22;22551;52.206;4.856;2024-01-10T02:55:30;-3.70;99.90
36548;DHT22;22551;52.206;4.856;2024-01-10T03:00:32;-3.70;99.90
36548;DHT22;22551;52.206;4.856;2024-01-10T03:05:34;-3.70;99.90
36548;DHT22;22551;52.206;4.856;2024-01-10T03:10:38;-3.70;99.90
36548;DHT22;22551;52.206;4.856;2024-01-10T03:15:40;-3.70;99.90
36548;DHT22;22551;52.206;4.856;2024-01-10T03:20:42;-3.80;99.90
36548;DHT22;22551;52.206;4.856;2024-01-10T03:25:46;-3.70;99.90
36548;DHT22;22551;52.206;4.856;2024-01-10T03:30:48;-3.80;99.90
36548;DHT22;22551;52.206;4.856;2024-01-10T03:35:51;-3.80;99.90
36548;DHT22;22551;52.206;4.856;2024-01-10T03:40:55;-3.80;99.90
36548;DHT22;22551;52.206;4.856;2024-01-10T03:45:58;-3.80;99.90
36548;DHT22;22551;52.206;4.856;2024-01-10T03:51:00;-3.80;99.90
36548;DHT22;22551;52.206;4.856;2024-01-10T03:56:06;-3.80;99.90
36548;DHT22;22551;52.206;4.856;2024-01-10T04:01:09;-3.80;99.90
36548;DHT22;22551;52.206;4.856;2024-01-10T04:06:12;-3.60;99.90
36548;DHT22;22551;52.206;4.856;2024-01-10T04:11:16;-3.60;99.90
36548;DHT22;22551;52.206;4.856;2024-01-10T04:16:18;-3.60;99.90
36548;DHT22;22551;52.206;4.856;2024-01-10T04:21:20;-3.60;99.90
36548;DHT22;22551;52.206;4.856;2024-01-10T04:26:24;-3.60;99.90
36548;DHT22;22551;52.206;4.856;2024-01-10T04:31:26;-3.60;99.90
36548;DHT22;22551;52.206;4.856;2024-01-10T04:36:29;-3.70;99.90
36548;DHT22;22551;52.206;4.856;2024-01-10T04:41:33;-3.70;99.90
36548;DHT22;22551;52.206;4.856;2024-01-10T04:46:35;-3.70;99.90
36548;DHT22;22551;52.206;4.856;2024-01-10T04:51:38;-3.70;99.90
36548;DHT22;22551;52.206;4.856;2024-01-10T04:56:42;-3.70;99.90
36548;DHT22;22551;52.206;4.856;2024-01-10T05:01:44;-3.60;99.90
36548;DHT22;22551;52.206;4.856;2024-01-10T05:06:46;-3.70;99.90
36548;DHT22;22551;52.206;4.856;2024-01-10T05:11:50;-3.60;99.90
36548;DHT22;22551;52.206;4.856;2024-01-10T05:16:53;-3.70;99.90
36548;DHT22;22551;52.206;4.856;2024-01-10T05:21:55;-3.70;99.90
36548;DHT22;22551;52.206;4.856;2024-01-10T05:26:59;-3.70;99.90
36548;DHT22;22551;52.206;4.856;2024-01-10T05:32:01;-3.70;99.90
36548;DHT22;22551;52.206;4.856;2024-01-10T05:37:04;-3.70;99.90
36548;DHT22;22551;52.206;4.856;2024-01-10T05:42:08;-3.70;99.90
36548;DHT22;22551;52.206;4.856;2024-01-10T05:47:10;-3.60;99.90
36548;DHT22;22551;52.206;4.856;2024-01-10T05:52:12;-3.50;99.90
36548;DHT22;22551;52.206;4.856;2024-01-10T05:57:16;-3.60;99.90
36548;DHT22;22551;52.206;4.856;2024-01-10T06:02:18;-3.60;99.90
36548;DHT22;22551;52.206;4.856;2024-01-10T06:07:20;-3.50;99.90
36548;DHT22;22551;52.206;4.856;2024-01-10T06:12:24;-3.60;99.90
36548;DHT22;22551;52.206;4.856;2024-01-10T06:17:26;-3.50;99.90
36548;DHT22;22551;52.206;4.856;2024-01-10T06:22:28;-3.60;99.90
36548;DHT22;22551;52.206;4.856;2024-01-10T06:27:32;-3.50;99.90
36548;DHT22;22551;52.206;4.856;2024-01-10T06:32:34;-3.50;99.90
36548;DHT22;22551;52.206;4.856;2024-01-10T06:37:38;-3.50;99.90
36548;DHT22;22551;52.206;4.856;2024-01-10T06:42:41;-3.50;99.90
36548;DHT22;22551;52.206;4.856;2024-01-10T06:47:43;-3.60;99.90
36548;DHT22;22551;52.206;4.856;2024-01-10T06:52:46;-3.60;99.90
36548;DHT22;22551;52.206;4.856;2024-01-10T06:57:50;-3.60;99.90
36548;DHT22;22551;52.206;4.856;2024-01-10T07:02:53;-3.50;99.90
36548;DHT22;22551;52.206;4.856;2024-01-10T07:07:55;-3.50;99.90
36548;DHT22;22551;52.206;4.856;2024-01-10T07:12:59;-3.50;99.90
36548;DHT22;22551;52.206;4.856;2024-01-10T07:18:05;-3.50;99.90
36548;DHT22;22551;52.206;4.856;2024-01-10T07:23:08;-3.50;99.90
36548;DHT22;22551;52.206;4.856;2024-01-10T07:28:12;-3.50;99.90
36548;DHT22;22551;52.206;4.856;2024-01-10T07:33:14;-3.60;99.90
36548;DHT22;22551;52.206;4.856;2024-01-10T07:38:16;-3.60;99.90
36548;DHT22;22551;52.206;4.856;2024-01-10T07:43:20;-3.70;99.90
36548;DHT22;22551;52.206;4.856;2024-01-10T07:48:23;-3.70;99.90
36548;DHT22;22551;52.206;4.856;2024-01-10T07:53:25;-3.80;99.90
36548;DHT22;22551;52.206;4.856;2024-01-10T07:58:28;-3.70;99.90
36548;DHT22;22551;52.206;4.856;2024-01-10T08:03:31;-3.70;99.90
36548;DHT22;22551;52.206;4.856;2024-01-10T08:08:33;-3.70;99.90
36548;DHT22;22551;52.206;4.856;2024-01-10T08:13:37;-3.70;99.90
36548;DHT22;22551;52.206;4.856;2024-01-10T08:18:39;-3.60;99.90
36548;DHT22;22551;52.206;4.856;2024-01-10T08:23:41;-3.50;99.90
36548;DHT22;22551;52.206;4.856;2024-01-10T08:28:45;-3.30;99.90
36548;DHT22;22551;52.206;4.856;2024-01-10T08:33:47;-3.30;99.90
36548;DHT22;22551;52.206;4.856;2024-01-10T08:38:49;-3.10;99.90
36548;DHT22;22551;52.206;4.856;2024-01-10T08:43:53;-3.20;99.90
36548;DHT22;22551;52.206;4.856;2024-01-10T08:48:55;-3.10;99.90
36548;DHT22;22551;52.206;4.856;2024-01-10T08:53:59;-3.00;99.90
36548;DHT22;22551;52.206;4.856;2024-01-10T08:59:03;-3.00;99.90
36548;DHT22;22551;52.206;4.856;2024-01-10T09:04:06;-2.90;99.90
36548;DHT22;22551;52.206;4.856;2024-01-10T09:09:08;-2.90;99.90
36548;DHT22;22551;52.206;4.856;2024-01-10T09:14:12;-2.80;99.90
36548;DHT22;22551;52.206;4.856;2024-01-10T09:19:14;-2.70;99.90
36548;DHT22;22551;52.206;4.856;2024-01-10T09:24:18;-2.70;99.90
36548;DHT22;22551;52.206;4.856;2024-01-10T09:29:22;-2.70;99.90
36548;DHT22;22551;52.206;4.856;2024-01-10T09:34:25;-2.50;99.90
36548;DHT22;22551;52.206;4.856;2024-01-10T09:39:29;-2.30;99.90
36548;DHT22;22551;52.206;4.856;2024-01-10T09:44:33;-2.20;99.90
36548;DHT22;22551;52.206;4.856;2024-01-10T09:49:35;-2.00;99.90
36548;DHT22;22551;52.206;4.856;2024-01-10T09:54:40;-2.00;99.90
36548;DHT22;22551;52.206;4.856;2024-01-10T09:59:47;-1.90;99.90
36548;DHT22;22551;52.206;4.856;2024-01-10T10:04:56;-1.80;99.90
36548;DHT22;22551;52.206;4.856;2024-01-10T10:10:01;-1.80;99.90
36548;DHT22;22551;52.206;4.856;2024-01-10T10:15:12;-1.60;99.90
36548;DHT22;22551;52.206;4.856;2024-01-10T10:20:20;-1.60;99.90
36548;DHT22;22551;52.206;4.856;2024-01-10T10:25:23;-1.50;99.90
36548;DHT22;22551;52.206;4.856;2024-01-10T10:30:27;-1.50;99.90
36548;DHT22;22551;52.206;4.856;2024-01-10T10:35:29;-1.30;99.90
36548;DHT22;22551;52.206;4.856;2024-01-10T10:40:32;-1.40;99.90
36548;DHT22;22551;52.206;4.856;2024-01-10T10:45:36;-1.30;99.90
36548;DHT22;22551;52.206;4.856;2024-01-10T10:50:38;-1.20;99.90
36548;DHT22;22551;52.206;4.856;2024-01-10T10:55:41;-1.10;99.90
36548;DHT22;22551;52.206;4.856;2024-01-10T11:00:45;-1.00;99.90
36548;DHT22;22551;52.206;4.856;2024-01-10T11:05:49;-0.90;99.90
36548;DHT22;22551;52.206;4.856;2024-01-10T11:10:53;-1.00;99.90
36548;DHT22;22551;52.206;4.856;2024-01-10T11:16:35;-0.90;99.90
36548;DHT22;22551;52.206;4.856;2024-01-10T11:21:56;-0.80;99.90
36548;DHT22;22551;52.206;4.856;2024-01-10T11:27:11;-0.70;99.90
36548;DHT22;22551;52.206;4.856;2024-01-10T11:32:17;-0.70;99.90
36548;DHT22;22551;52.206;4.856;2024-01-10T11:37:19;-0.80;99.90
36548;DHT22;22551;52.206;4.856;2024-01-10T11:42:22;-0.70;99.90
36548;DHT22;22551;52.206;4.856;2024-01-10T11:47:26;-0.70;99.90
36548;DHT22;22551;52.206;4.856;2024-01-10T11:52:32;-0.70;99.90
36548;DHT22;22551;52.206;4.856;2024-01-10T11:57:35;-0.70;99.90
36548;DHT22;22551;52.206;4.856;2024-01-10T12:02:39;-0.60;99.90
36548;DHT22;22551;52.206;4.856;2024-01-10T12:07:42;-0.60;99.90
36548;DHT22;22551;52.206;4.856;2024-01-10T12:12:45;-0.50;99.90
36548;DHT22;22551;52.206;4.856;2024-01-10T12:17:48;-0.40;99.90
36548;DHT22;22551;52.206;4.856;2024-01-10T12:22:53;-0.40;99.90
36548;DHT22;22551;52.206;4.856;2024-01-10T12:28:01;-0.30;99.90
36548;DHT22;22551;52.206;4.856;2024-01-10T12:33:05;-0.20;99.90
36548;DHT22;22551;52.206;4.856;2024-01-10T12:38:07;-0.20;99.90
36548;DHT22;22551;52.206;4.856;2024-01-10T12:43:09;-0.20;99.90
36548;DHT22;22551;52.206;4.856;2024-01-10T12:48:14;-0.20;99.90
36548;DHT22;22551;52.206;4.856;2024-01-10T12:53:17;-0.10;99.90
36548;DHT22;22551;52.206;4.856;2024-01-10T12:58:19;-0.10;99.90
36548;DHT22;22551;52.206;4.856;2024-01-10T13:03:23;-0.10;99.90
36548;DHT22;22551;52.206;4.856;2024-01-10T13:08:26;0.10;99.90
36548;DHT22;22551;52.206;4.856;2024-01-10T13:13:28;0.20;99.90
36548;DHT22;22551;52.206;4.856;2024-01-10T13:18:32;0.20;99.90
36548;DHT22;22551;52.206;4.856;2024-01-10T13:23:34;0.20;99.90
36548;DHT22;22551;52.206;4.856;2024-01-10T13:28:37;0.40;99.90
36548;DHT22;22551;52.206;4.856;2024-01-10T13:33:41;0.40;99.90
36548;DHT22;22551;52.206;4.856;2024-01-10T13:38:43;0.40;99.90
36548;DHT22;22551;52.206;4.856;2024-01-10T13:43:45;0.40;99.90
36548;DHT22;22551;52.206;4.856;2024-01-10T13:48:49;0.50;99.90
36548;DHT22;22551;52.206;4.856;2024-01-10T13:53:51;0.60;99.90
36548;DHT22;22551;52.206;4.856;2024-01-10T13:58:53;0.70;99.90
36548;DHT22;22551;52.206;4.856;2024-01-10T14:03:57;0.80;99.90
36548;DHT22;22551;52.206;4.856;2024-01-10T14:08:59;0.70;99.90
36548;DHT22;22551;52.206;4.856;2024-01-10T14:14:01;0.60;99.90
36548;DHT22;22551;52.206;4.856;2024-01-10T14:19:05;0.50;99.90
36548;DHT22;22551;52.206;4.856;2024-01-10T14:24:07;0.50;99.90
36548;DHT22;22551;52.206;4.856;2024-01-10T14:29:09;0.50;99.90
36548;DHT22;22551;52.206;4.856;2024-01-10T14:34:13;0.60;99.90
36548;DHT22;22551;52.206;4.856;2024-01-10T14:39:15;0.70;99.90
36548;DHT22;22551;52.206;4.856;2024-01-10T14:44:18;0.50;99.90
36548;DHT22;22551;52.206;4.856;2024-01-10T14:49:22;0.40;99.90
36548;DHT22;22551;52.206;4.856;2024-01-10T14:54:24;0.20;99.90
36548;DHT22;22551;52.206;4.856;2024-01-10T14:59:27;0.20;99.90
36548;DHT22;22551;52.206;4.856;2024-01-10T15:04:36;0.20;99.90
36548;DHT22;22551;52.206;4.856;2024-01-10T15:09:39;0.10;99.90
36548;DHT22;22551;52.206;4.856;2024-01-10T15:14:41;0.00;99.90
36548;DHT22;22551;52.206;4.856;2024-01-10T15:19:45;0.00;99.90
36548;DHT22;22551;52.206;4.856;2024-01-10T15:24:47;0.00;99.90
36548;DHT22;22551;52.206;4.856;2024-01-10T15:29:49;0.00;99.90
36548;DHT22;22551;52.206;4.856;2024-01-10T15:34:53;-0.10;99.90
36548;DHT22;22551;52.206;4.856;2024-01-10T15:39:55;-0.20;99.90
36548;DHT22;22551;52.206;4.856;2024-01-10T15:44:57;-0.20;99.90
36548;DHT22;22551;52.206;4.856;2024-01-10T15:50:01;-0.30;99.90
36548;DHT22;22551;52.206;4.856;2024-01-10T15:55:05;-0.40;99.90
36548;DHT22;22551;52.206;4.856;2024-01-10T16:00:10;-0.30;99.90
36548;DHT22;22551;52.206;4.856;2024-01-10T16:05:14;-0.40;99.90
36548;DHT22;22551;52.206;4.856;2024-01-10T16:10:17;-0.50;99.90
36548;DHT22;22551;52.206;4.856;2024-01-10T16:15:20;-0.60;99.90
36548;DHT22;22551;52.206;4.856;2024-01-10T16:30:44;-0.70;99.90
36548;DHT22;22551;52.206;4.856;2024-01-10T16:35:46;-0.90;99.90
36548;DHT22;22551;52.206;4.856;2024-01-10T16:40:48;-0.90;99.90
36548;DHT22;22551;52.206;4.856;2024-01-10T23:00:35;-2.60;99.90
36548;DHT22;22551;52.206;4.856;2024-01-10T23:05:37;-2.60;99.90
36548;DHT22;22551;52.206;4.856;2024-01-10T23:10:39;-2.70;99.90
36548;DHT22;22551;52.206;4.856;2024-01-10T23:15:43;-2.70;99.90
36548;DHT22;22551;52.206;4.856;2024-01-10T23:20:45;-2.70;99.90
36548;DHT22;22551;52.206;4.856;2024-01-10T23:25:48;-2.80;99.90
36548;DHT22;22551;52.206;4.856;2024-01-10T23:30:52;-2.90;99.90
36548;DHT22;22551;52.206;4.856;2024-01-10T23:35:55;-3.10;99.90
36548;DHT22;22551;52.206;4.856;2024-01-10T23:40:57;-3.20;99.90
36548;DHT22;22551;52.206;4.856;2024-01-10T23:46:01;-3.30;99.90
